sensor_id;sensor_type;location;lat;lon;timestamp;temperature;humidity
35305;DHT22;26433;48.034;-1.764;2022-07-25T00:01:36;22.30;53.60
35305;DHT22;26433;48.034;-1.764;2022-07-25T00:06:41;22.30;53.60
35305;DHT22;26433;48.034;-1.764;2022-07-25T00:11:45;22.20;53.90
35305;DHT22;26433;48.034;-1.764;2022-07-25T00:16:50;22.00;54.10
35305;DHT22;26433;48.034;-1.764;2022-07-25T00:21:54;22.00;54.40
35305;DHT22;26433;48.034;-1.764;2022-07-25T00:26:58;21.90;54.50
35305;DHT22;26433;48.034;-1.764;2022-07-25T00:32:04;21.80;54.70
35305;DHT22;26433;48.034;-1.764;2022-07-25T00:37:08;21.70;54.60
35305;DHT22;26433;48.034;-1.764;2022-07-25T00:42:11;21.60;54.80
35305;DHT22;26433;48.034;-1.764;2022-07-25T00:47:16;21.50;55.20
35305;DHT22;26433;48.034;-1.764;2022-07-25T00:52:20;21.40;55.50
35305;DHT22;26433;48.034;-1.764;2022-07-25T00:57:25;21.30;55.70
35305;DHT22;26433;48.034;-1.764;2022-07-25T01:02:30;21.30;56.00
35305;DHT22;26433;48.034;-1.764;2022-07-25T01:07:34;21.30;56.40
35305;DHT22;26433;48.034;-1.764;2022-07-25T01:12:47;21.20;56.60
35305;DHT22;26433;48.034;-1.764;2022-07-25T01:17:53;21.30;56.90
35305;DHT22;26433;48.034;-1.764;2022-07-25T01:22:59;21.30;57.00
35305;DHT22;26433;48.034;-1.764;2022-07-25T01:28:03;21.30;57.30
35305;DHT22;26433;48.034;-1.764;2022-07-25T01:33:06;21.30;57.60
35305;DHT22;26433;48.034;-1.764;2022-07-25T01:38:12;21.30;57.80
35305;DHT22;26433;48.034;-1.764;2022-07-25T01:43:16;21.30;58.10
35305;DHT22;26433;48.034;-1.764;2022-07-25T01:48:19;21.40;58.30
35305;DHT22;26433;48.034;-1.764;2022-07-25T01:53:24;21.30;58.50
35305;DHT22;26433;48.034;-1.764;2022-07-25T01:58:28;21.40;58.70
35305;DHT22;26433;48.034;-1.764;2022-07-25T02:03:32;21.40;59.00
35305;DHT22;26433;48.034;-1.764;2022-07-25T02:08:37;21.40;59.20
35305;DHT22;26433;48.034;-1.764;2022-07-25T02:13:40;21.40;59.40
35305;DHT22;26433;48.034;-1.764;2022-07-25T02:18:44;21.40;59.80
35305;DHT22;26433;48.034;-1.764;2022-07-25T02:23:50;21.30;60.20
35305;DHT22;26433;48.034;-1.764;2022-07-25T02:28:53;21.30;60.30
35305;DHT22;26433;48.034;-1.764;2022-07-25T02:33:57;21.30;60.20
35305;DHT22;26433;48.034;-1.764;2022-07-25T02:39:03;21.30;60.40
35305;DHT22;26433;48.034;-1.764;2022-07-25T02:44:06;21.30;61.20
35305;DHT22;26433;48.034;-1.764;2022-07-25T02:49:11;21.30;61.00
35305;DHT22;26433;48.034;-1.764;2022-07-25T02:54:16;21.30;61.30
35305;DHT22;26433;48.034;-1.764;2022-07-25T02:59:21;21.40;61.50
35305;DHT22;26433;48.034;-1.764;2022-07-25T03:04:24;21.40;61.70
35305;DHT22;26433;48.034;-1.764;2022-07-25T03:09:29;21.40;61.80
35305;DHT22;26433;48.034;-1.764;2022-07-25T03:14:33;21.40;62.00
35305;DHT22;26433;48.034;-1.764;2022-07-25T03:19:37;21.40;62.30
35305;DHT22;26433;48.034;-1.764;2022-07-25T03:24:42;21.40;62.60
35305;DHT22;26433;48.034;-1.764;2022-07-25T03:29:46;21.40;62.70
35305;DHT22;26433;48.034;-1.764;2022-07-25T03:34:49;21.50;62.70
35305;DHT22;26433;48.034;-1.764;2022-07-25T03:39:54;21.60;62.70
35305;DHT22;26433;48.034;-1.764;2022-07-25T03:44:58;21.60;62.90
35305;DHT22;26433;48.034;-1.764;2022-07-25T03:50:02;21.60;63.20
35305;DHT22;26433;48.034;-1.764;2022-07-25T03:55:08;21.60;63.50
35305;DHT22;26433;48.034;-1.764;2022-07-25T04:00:13;21.60;63.60
35305;DHT22;26433;48.034;-1.764;2022-07-25T04:05:16;21.60;63.90
35305;DHT22;26433;48.034;-1.764;2022-07-25T04:10:21;21.70;64.00
35305;DHT22;26433;48.034;-1.764;2022-07-25T04:15:25;21.70;64.00
35305;DHT22;26433;48.034;-1.764;2022-07-25T04:20:31;21.70;64.20
35305;DHT22;26433;48.034;-1.764;2022-07-25T04:25:36;21.70;64.40
35305;DHT22;26433;48.034;-1.764;2022-07-25T04:30:40;21.70;64.70
35305;DHT22;26433;48.034;-1.764;2022-07-25T04:35:47;21.60;65.10
35305;DHT22;26433;48.034;-1.764;2022-07-25T04:40:52;21.70;65.40
35305;DHT22;26433;48.034;-1.764;2022-07-25T04:45:56;21.60;65.80
35305;DHT22;26433;48.034;-1.764;2022-07-25T04:51:00;21.60;66.30
35305;DHT22;26433;48.034;-1.764;2022-07-25T04:56:05;21.60;66.30
35305;DHT22;26433;48.034;-1.764;2022-07-25T05:01:09;21.70;66.40
35305;DHT22;26433;48.034;-1.764;2022-07-25T05:06:13;21.70;66.70
35305;DHT22;26433;48.034;-1.764;2022-07-25T05:11:19;21.70;66.90
35305;DHT22;26433;48.034;-1.764;2022-07-25T05:16:23;21.70;67.10
35305;DHT22;26433;48.034;-1.764;2022-07-25T05:21:27;21.70;67.30
35305;DHT22;26433;48.034;-1.764;2022-07-25T05:26:32;21.80;67.40
35305;DHT22;26433;48.034;-1.764;2022-07-25T05:31:36;21.90;67.30
35305;DHT22;26433;48.034;-1.764;2022-07-25T05:36:40;21.90;67.30
35305;DHT22;26433;48.034;-1.764;2022-07-25T05:41:50;22.00;67.30
35305;DHT22;26433;48.034;-1.764;2022-07-25T05:46:53;22.00;67.30
35305;DHT22;26433;48.034;-1.764;2022-07-25T05:51:57;22.10;67.20
35305;DHT22;26433;48.034;-1.764;2022-07-25T05:57:02;22.10;67.20
35305;DHT22;26433;48.034;-1.764;2022-07-25T06:02:06;22.10;67.30
35305;DHT22;26433;48.034;-1.764;2022-07-25T06:07:10;22.00;67.50
35305;DHT22;26433;48.034;-1.764;2022-07-25T06:12:19;21.90;67.70
35305;DHT22;26433;48.034;-1.764;2022-07-25T06:17:25;21.90;68.00
35305;DHT22;26433;48.034;-1.764;2022-07-25T06:22:34;21.90;68.20
35305;DHT22;26433;48.034;-1.764;2022-07-25T06:27:39;21.80;68.20
35305;DHT22;26433;48.034;-1.764;2022-07-25T06:32:43;21.80;68.10
35305;DHT22;26433;48.034;-1.764;2022-07-25T06:37:47;21.90;68.40
35305;DHT22;26433;48.034;-1.764;2022-07-25T06:42:52;22.00;67.80
35305;DHT22;26433;48.034;-1.764;2022-07-25T06:47:55;22.00;67.70
35305;DHT22;26433;48.034;-1.764;2022-07-25T06:52:59;21.90;67.70
35305;DHT22;26433;48.034;-1.764;2022-07-25T06:58:04;21.90;67.80
35305;DHT22;26433;48.034;-1.764;2022-07-25T07:03:08;22.10;67.50
35305;DHT22;26433;48.034;-1.764;2022-07-25T07:08:12;22.30;67.00
35305;DHT22;26433;48.034;-1.764;2022-07-25T07:13:17;22.30;66.90
35305;DHT22;26433;48.034;-1.764;2022-07-25T07:18:25;22.10;67.10
35305;DHT22;26433;48.034;-1.764;2022-07-25T07:23:29;22.10;67.20
35305;DHT22;26433;48.034;-1.764;2022-07-25T07:28:35;22.20;66.80
35305;DHT22;26433;48.034;-1.764;2022-07-25T07:33:38;22.30;66.30
35305;DHT22;26433;48.034;-1.764;2022-07-25T07:38:42;22.40;66.00
35305;DHT22;26433;48.034;-1.764;2022-07-25T07:43:48;22.60;65.50
35305;DHT22;26433;48.034;-1.764;2022-07-25T07:48:51;22.80;64.90
35305;DHT22;26433;48.034;-1.764;2022-07-25T07:53:55;23.00;64.60
35305;DHT22;26433;48.034;-1.764;2022-07-25T07:59:29;23.10;64.30
35305;DHT22;26433;48.034;-1.764;2022-07-25T08:04:33;23.20;63.90
35305;DHT22;26433;48.034;-1.764;2022-07-25T08:09:37;23.20;63.70
35305;DHT22;26433;48.034;-1.764;2022-07-25T08:14:42;23.20;63.50
35305;DHT22;26433;48.034;-1.764;2022-07-25T08:19:45;23.30;63.20
35305;DHT22;26433;48.034;-1.764;2022-07-25T08:24:49;23.40;62.90
35305;DHT22;26433;48.034;-1.764;2022-07-25T08:29:54;23.40;62.50
35305;DHT22;26433;48.034;-1.764;2022-07-25T08:35:00;23.40;62.30
35305;DHT22;26433;48.034;-1.764;2022-07-25T08:40:08;23.40;62.10
35305;DHT22;26433;48.034;-1.764;2022-07-25T08:45:15;23.50;61.60
35305;DHT22;26433;48.034;-1.764;2022-07-25T08:50:21;23.60;61.40
35305;DHT22;26433;48.034;-1.764;2022-07-25T08:55:25;23.70;61.10
35305;DHT22;26433;48.034;-1.764;2022-07-25T09:00:31;23.60;61.00
35305;DHT22;26433;48.034;-1.764;2022-07-25T09:05:35;23.90;60.70
35305;DHT22;26433;48.034;-1.764;2022-07-25T09:10:44;24.50;59.30
35305;DHT22;26433;48.034;-1.764;2022-07-25T09:15:51;24.90;58.40
35305;DHT22;26433;48.034;-1.764;2022-07-25T09:20:56;25.20;57.80
35305;DHT22;26433;48.034;-1.764;2022-07-25T09:26:02;25.50;57.20
35305;DHT22;26433;48.034;-1.764;2022-07-25T09:31:08;25.50;57.20
35305;DHT22;26433;48.034;-1.764;2022-07-25T09:36:12;25.50;57.20
35305;DHT22;26433;48.034;-1.764;2022-07-25T09:41:16;25.60;56.80
35305;DHT22;26433;48.034;-1.764;2022-07-25T09:46:28;25.70;56.40
35305;DHT22;26433;48.034;-1.764;2022-07-25T09:51:33;25.70;56.40
35305;DHT22;26433;48.034;-1.764;2022-07-25T09:56:37;25.90;56.10
35305;DHT22;26433;48.034;-1.764;2022-07-25T10:01:49;25.90;55.90
35305;DHT22;26433;48.034;-1.764;2022-07-25T10:07:00;25.70;56.10
35305;DHT22;26433;48.034;-1.764;2022-07-25T10:12:07;25.70;56.00
35305;DHT22;26433;48.034;-1.764;2022-07-25T10:17:20;25.80;55.80
35305;DHT22;26433;48.034;-1.764;2022-07-25T10:22:35;26.00;55.00
35305;DHT22;26433;48.034;-1.764;2022-07-25T10:27:59;26.10;54.90
35305;DHT22;26433;48.034;-1.764;2022-07-25T10:33:13;26.10;54.60
35305;DHT22;26433;48.034;-1.764;2022-07-25T10:38:23;25.80;54.90
35305;DHT22;26433;48.034;-1.764;2022-07-25T10:43:27;25.50;55.10
35305;DHT22;26433;48.034;-1.764;2022-07-25T10:48:32;25.50;55.00
35305;DHT22;26433;48.034;-1.764;2022-07-25T10:53:37;25.80;54.50
35305;DHT22;26433;48.034;-1.764;2022-07-25T10:58:47;26.00;54.00
35305;DHT22;26433;48.034;-1.764;2022-07-25T11:03:53;26.10;53.50
35305;DHT22;26433;48.034;-1.764;2022-07-25T11:08:57;26.60;52.60
35305;DHT22;26433;48.034;-1.764;2022-07-25T11:14:03;26.90;51.70
35305;DHT22;26433;48.034;-1.764;2022-07-25T11:19:17;26.80;51.70
35305;DHT22;26433;48.034;-1.764;2022-07-25T11:24:21;27.40;51.00
35305;DHT22;26433;48.034;-1.764;2022-07-25T11:29:25;28.20;49.90
35305;DHT22;26433;48.034;-1.764;2022-07-25T11:34:31;29.10;48.70
35305;DHT22;26433;48.034;-1.764;2022-07-25T11:39:38;29.20;48.40
35305;DHT22;26433;48.034;-1.764;2022-07-25T11:44:44;28.90;48.70
35305;DHT22;26433;48.034;-1.764;2022-07-25T11:49:52;28.80;48.80
35305;DHT22;26433;48.034;-1.764;2022-07-25T11:54:58;28.70;48.60
35305;DHT22;26433;48.034;-1.764;2022-07-25T12:00:04;28.20;49.30
35305;DHT22;26433;48.034;-1.764;2022-07-25T12:05:14;28.30;49.00
35305;DHT22;26433;48.034;-1.764;2022-07-25T12:10:22;28.70;48.20
35305;DHT22;26433;48.034;-1.764;2022-07-25T12:15:27;28.90;47.50
35305;DHT22;26433;48.034;-1.764;2022-07-25T12:20:34;29.40;47.00
35305;DHT22;26433;48.034;-1.764;2022-07-25T12:25:39;29.40;46.40
35305;DHT22;26433;48.034;-1.764;2022-07-25T12:30:46;29.50;46.30
35305;DHT22;26433;48.034;-1.764;2022-07-25T12:35:59;29.60;46.10
35305;DHT22;26433;48.034;-1.764;2022-07-25T12:41:09;30.00;45.50
35305;DHT22;26433;48.034;-1.764;2022-07-25T12:46:19;30.40;44.90
35305;DHT22;26433;48.034;-1.764;2022-07-25T12:51:24;31.00;44.00
35305;DHT22;26433;48.034;-1.764;2022-07-25T12:56:28;31.30;43.60
35305;DHT22;26433;48.034;-1.764;2022-07-25T13:01:31;31.60;43.40
35305;DHT22;26433;48.034;-1.764;2022-07-25T13:06:37;31.00;43.60
35305;DHT22;26433;48.034;-1.764;2022-07-25T13:11:40;30.60;43.90
35305;DHT22;26433;48.034;-1.764;2022-07-25T13:16:45;30.30;44.10
35305;DHT22;26433;48.034;-1.764;2022-07-25T13:21:50;30.10;44.20
35305;DHT22;26433;48.034;-1.764;2022-07-25T13:26:54;30.00;44.10
35305;DHT22;26433;48.034;-1.764;2022-07-25T13:31:58;30.00;44.00
35305;DHT22;26433;48.034;-1.764;2022-07-25T13:37:03;29.60;44.10
35305;DHT22;26433;48.034;-1.764;2022-07-25T13:42:06;29.50;44.30
35305;DHT22;26433;48.034;-1.764;2022-07-25T13:47:10;29.40;44.30
35305;DHT22;26433;48.034;-1.764;2022-07-25T13:52:15;29.40;44.00
35305;DHT22;26433;48.034;-1.764;2022-07-25T13:57:19;29.20;44.90
35305;DHT22;26433;48.034;-1.764;2022-07-25T14:02:23;28.90;44.60
35305;DHT22;26433;48.034;-1.764;2022-07-25T14:07:28;28.50;44.70
35305;DHT22;26433;48.034;-1.764;2022-07-25T14:12:32;28.30;44.90
35305;DHT22;26433;48.034;-1.764;2022-07-25T14:17:36;28.00;45.10
35305;DHT22;26433;48.034;-1.764;2022-07-25T14:22:42;27.90;45.10
35305;DHT22;26433;48.034;-1.764;2022-07-25T14:27:46;27.80;45.10
35305;DHT22;26433;48.034;-1.764;2022-07-25T14:32:49;27.70;45.20
35305;DHT22;26433;48.034;-1.764;2022-07-25T14:37:54;27.60;45.20
35305;DHT22;26433;48.034;-1.764;2022-07-25T14:42:58;27.40;45.20
35305;DHT22;26433;48.034;-1.764;2022-07-25T14:48:03;27.50;45.30
35305;DHT22;26433;48.034;-1.764;2022-07-25T14:53:08;27.40;45.30
35305;DHT22;26433;48.034;-1.764;2022-07-25T14:58:13;27.20;45.40
35305;DHT22;26433;48.034;-1.764;2022-07-25T15:03:17;27.10;45.50
35305;DHT22;26433;48.034;-1.764;2022-07-25T15:08:22;27.10;45.60
35305;DHT22;26433;48.034;-1.764;2022-07-25T15:13:26;27.00;45.70
35305;DHT22;26433;48.034;-1.764;2022-07-25T15:18:33;27.00;45.80
35305;DHT22;26433;48.034;-1.764;2022-07-25T15:23:58;26.90;45.90
35305;DHT22;26433;48.034;-1.764;2022-07-25T15:29:04;26.70;46.00
35305;DHT22;26433;48.034;-1.764;2022-07-25T15:34:09;26.70;46.10
35305;DHT22;26433;48.034;-1.764;2022-07-25T15:39:15;26.70;46.10
35305;DHT22;26433;48.034;-1.764;2022-07-25T15:44:20;26.70;46.10
35305;DHT22;26433;48.034;-1.764;2022-07-25T15:49:24;26.70;46.20
35305;DHT22;26433;48.034;-1.764;2022-07-25T15:54:29;26.70;46.20
35305;DHT22;26433;48.034;-1.764;2022-07-25T15:59:33;26.70;46.30
35305;DHT22;26433;48.034;-1.764;2022-07-25T16:04:36;26.70;46.30
35305;DHT22;26433;48.034;-1.764;2022-07-25T16:09:42;26.70;46.50
35305;DHT22;26433;48.034;-1.764;2022-07-25T16:14:45;26.60;46.70
35305;DHT22;26433;48.034;-1.764;2022-07-25T16:19:49;26.50;46.80
35305;DHT22;26433;48.034;-1.764;2022-07-25T16:24:56;26.30;46.90
35305;DHT22;26433;48.034;-1.764;2022-07-25T16:30:02;26.30;47.20
35305;DHT22;26433;48.034;-1.764;2022-07-25T16:35:06;26.20;47.20
35305;DHT22;26433;48.034;-1.764;2022-07-25T16:40:12;26.00;47.50
35305;DHT22;26433;48.034;-1.764;2022-07-25T16:45:16;25.90;47.80
35305;DHT22;26433;48.034;-1.764;2022-07-25T16:50:20;25.90;48.10
35305;DHT22;26433;48.034;-1.764;2022-07-25T16:55:25;25.80;48.10
35305;DHT22;26433;48.034;-1.764;2022-07-25T17:00:29;25.90;48.20
35305;DHT22;26433;48.034;-1.764;2022-07-25T17:05:34;25.80;48.40
35305;DHT22;26433;48.034;-1.764;2022-07-25T17:10:39;25.80;48.60
35305;DHT22;26433;48.034;-1.764;2022-07-25T17:15:42;25.80;48.60
35305;DHT22;26433;48.034;-1.764;2022-07-25T17:20:46;25.70;48.50
35305;DHT22;26433;48.034;-1.764;2022-07-25T17:25:52;25.70;48.60
35305;DHT22;26433;48.034;-1.764;2022-07-25T17:30:55;25.60;48.80
35305;DHT22;26433;48.034;-1.764;2022-07-25T17:35:59;25.60;49.10
35305;DHT22;26433;48.034;-1.764;2022-07-25T17:41:05;25.40;49.40
35305;DHT22;26433;48.034;-1.764;2022-07-25T17:46:08;25.10;49.80
35305;DHT22;26433;48.034;-1.764;2022-07-25T17:51:14;25.00;50.20
35305;DHT22;26433;48.034;-1.764;2022-07-25T17:56:19;24.90;50.40
35305;DHT22;26433;48.034;-1.764;2022-07-25T18:01:56;24.90;50.50
35305;DHT22;26433;48.034;-1.764;2022-07-25T18:07:19;24.90;50.60
35305;DHT22;26433;48.034;-1.764;2022-07-25T18:12:24;25.00;50.40
35305;DHT22;26433;48.034;-1.764;2022-07-25T18:17:31;25.00;50.30
35305;DHT22;26433;48.034;-1.764;2022-07-25T18:22:34;25.00;50.40
35305;DHT22;26433;48.034;-1.764;2022-07-25T18:27:41;25.00;50.50
35305;DHT22;26433;48.034;-1.764;2022-07-25T18:32:45;25.00;50.70
35305;DHT22;26433;48.034;-1.764;2022-07-25T18:37:51;24.90;50.90
35305;DHT22;26433;48.034;-1.764;2022-07-25T18:42:56;24.80;51.00
35305;DHT22;26433;48.034;-1.764;2022-07-25T18:48:00;24.70;51.30
35305;DHT22;26433;48.034;-1.764;2022-07-25T18:53:04;24.70;51.40
35305;DHT22;26433;48.034;-1.764;2022-07-25T18:58:09;24.60;51.70
35305;DHT22;26433;48.034;-1.764;2022-07-25T19:03:38;24.60;52.40
35305;DHT22;26433;48.034;-1.764;2022-07-25T19:08:42;24.50;52.10
35305;DHT22;26433;48.034;-1.764;2022-07-25T19:13:48;24.40;52.00
35305;DHT22;26433;48.034;-1.764;2022-07-25T19:18:53;24.40;52.80
35305;DHT22;26433;48.034;-1.764;2022-07-25T19:23:56;24.20;52.50
35305;DHT22;26433;48.034;-1.764;2022-07-25T19:29:04;24.20;52.70
35305;DHT22;26433;48.034;-1.764;2022-07-25T19:34:08;24.10;52.90
35305;DHT22;26433;48.034;-1.764;2022-07-25T19:39:13;24.00;53.00
35305;DHT22;26433;48.034;-1.764;2022-07-25T19:44:18;24.00;53.00
35305;DHT22;26433;48.034;-1.764;2022-07-25T19:49:22;23.90;53.10
35305;DHT22;26433;48.034;-1.764;2022-07-25T19:54:26;23.70;53.50
35305;DHT22;26433;48.034;-1.764;2022-07-25T19:59:31;23.60;53.60
35305;DHT22;26433;48.034;-1.764;2022-07-25T20:04:35;23.50;53.90
35305;DHT22;26433;48.034;-1.764;2022-07-25T20:09:39;23.50;54.00
35305;DHT22;26433;48.034;-1.764;2022-07-25T20:14:44;23.40;54.30
35305;DHT22;26433;48.034;-1.764;2022-07-25T20:19:47;23.30;54.30
35305;DHT22;26433;48.034;-1.764;2022-07-25T20:25:01;23.30;54.40
35305;DHT22;26433;48.034;-1.764;2022-07-25T20:30:13;23.30;54.80
35305;DHT22;26433;48.034;-1.764;2022-07-25T20:48:19;22.50;54.60
35305;DHT22;26433;48.034;-1.764;2022-07-25T20:53:29;23.00;55.00
35305;DHT22;26433;48.034;-1.764;2022-07-25T20:58:35;23.60;55.80
35305;DHT22;26433;48.034;-1.764;2022-07-25T21:09:15;22.50;55.10
35305;DHT22;26433;48.034;-1.764;2022-07-25T21:14:19;22.70;55.60
35305;DHT22;26433;48.034;-1.764;2022-07-25T21:19:23;22.60;55.50
35305;DHT22;26433;48.034;-1.764;2022-07-25T21:24:28;22.60;55.60
35305;DHT22;26433;48.034;-1.764;2022-07-25T21:29:32;22.50;55.70
35305;DHT22;26433;48.034;-1.764;2022-07-25T21:34:36;22.40;55.80
35305;DHT22;26433;48.034;-1.764;2022-07-25T21:39:41;22.40;55.80
35305;DHT22;26433;48.034;-1.764;2022-07-25T21:44:45;22.40;55.80
35305;DHT22;26433;48.034;-1.764;2022-07-25T21:49:48;22.40;55.90
35305;DHT22;26433;48.034;-1.764;2022-07-25T21:55:11;22.30;55.90
35305;DHT22;26433;48.034;-1.764;2022-07-25T22:00:15;22.30;56.00
35305;DHT22;26433;48.034;-1.764;2022-07-25T22:05:19;22.30;56.10
35305;DHT22;26433;48.034;-1.764;2022-07-25T22:10:24;22.20;56.20
35305;DHT22;26433;48.034;-1.764;2022-07-25T22:15:28;22.20;56.20
35305;DHT22;26433;48.034;-1.764;2022-07-25T22:20:31;22.20;56.30
35305;DHT22;26433;48.034;-1.764;2022-07-25T22:25:36;22.10;56.30
35305;DHT22;26433;48.034;-1.764;2022-07-25T22:30:40;22.10;56.40
35305;DHT22;26433;48.034;-1.764;2022-07-25T22:35:43;22.10;56.50
35305;DHT22;26433;48.034;-1.764;2022-07-25T22:40:49;22.10;56.60
35305;DHT22;26433;48.034;-1.764;2022-07-25T22:45:52;22.00;56.70
35305;DHT22;26433;48.034;-1.764;2022-07-25T22:50:56;22.00;56.70
35305;DHT22;26433;48.034;-1.764;2022-07-25T22:56:01;22.00;56.80
35305;DHT22;26433;48.034;-1.764;2022-07-25T23:01:05;21.90;57.00
35305;DHT22;26433;48.034;-1.764;2022-07-25T23:06:10;21.90;57.00
35305;DHT22;26433;48.034;-1.764;2022-07-25T23:11:16;21.90;57.10
35305;DHT22;26433;48.034;-1.764;2022-07-25T23:16:19;21.90;57.20
35305;DHT22;26433;48.034;-1.764;2022-07-25T23:21:23;21.90;57.20
35305;DHT22;26433;48.034;-1.764;2022-07-25T23:26:29;21.90;57.30
35305;DHT22;26433;48.034;-1.764;2022-07-25T23:31:32;21.80;57.50
35305;DHT22;26433;48.034;-1.764;2022-07-25T23:36:36;21.70;57.70
35305;DHT22;26433;48.034;-1.764;2022-07-25T23:41:42;21.70;57.90
35305;DHT22;26433;48.034;-1.764;2022-07-25T23:46:45;21.60;58.20
35305;DHT22;26433;48.034;-1.764;2022-07-25T23:51:50;21.50;58.40
35305;DHT22;26433;48.034;-1.764;2022-07-25T23:56:55;21.40;58.60
